Time;durP1;ratioP1;P1;durP2;ratioP2;P2;SDS_P1;SDS_P2;PMS_P1;PMS_P2;Temp;Humidity;BMP_temperature;BMP_pressure;BME280_temperature;BME280_humidity;BME280_pressure;Samples;Min_cycle;Max_cycle;Signal;HPM_P1;HPM_P2
2022/01/30 00:03:23;;;;;;;31.67;4.45;;;5.90;99.90;;;;;;520844;26;20426;-84
2022/01/30 00:05:49;;;;;;;22.58;4.28;;;6.00;99.90;;;;;;5010984;28;20066;-80
2022/01/30 00:08:15;;;;;;;28.35;4.10;;;6.00;99.90;;;;;;5008175;28;20381;-81
2022/01/30 00:10:41;;;;;;;38.67;4.72;;;6.10;99.90;;;;;;5007926;28;20451;-82
2022/01/30 00:13:11;;;;;;;50.83;5.97;;;6.10;99.90;;;;;;5008685;28;20084;-83
2022/01/30 00:15:43;;;;;;;34.63;4.50;;;6.10;99.90;;;;;;4986059;28;20049;-84
2022/01/30 00:18:20;;;;;;;32.35;4.45;;;6.10;99.90;;;;;;5010660;28;20095;-83
2022/01/30 00:23:47;;;;;;;26.02;4.10;;;6.00;99.90;;;;;;5007379;28;20034;-83
2022/01/30 00:30:46;;;;;;;20.63;3.25;;;5.20;99.90;;;;;;4798331;29;20058;-83
2022/01/30 00:48:38;;;;;;;23.73;3.20;;;5.40;99.90;;;;;;4694092;30;20166;-83
2022/01/30 00:55:38;;;;;;;24.65;3.90;;;5.30;99.90;;;;;;4680520;30;20192;-83
2022/01/30 01:25:31;;;;;;;36.35;4.43;;;6.60;99.90;;;;;;6224362;23;20445;-83
2022/01/30 01:43:31;;;;;;;29.50;4.30;;;5.50;99.90;;;;;;6128463;23;20056;-83
2022/01/30 01:46:00;;;;;;;30.60;3.97;;;5.10;99.90;;;;;;6103703;23;20025;-83
2022/01/30 01:48:33;;;;;;;30.77;4.18;;;6.60;99.90;;;;;;6128890;23;20072;-83
2022/01/30 01:51:16;;;;;;;23.33;3.50;;;5.80;99.90;;;;;;6078523;23;20021;-84
2022/01/30 01:53:47;;;;;;;24.17;3.58;;;5.70;99.90;;;;;;6078785;23;20014;-84
2022/01/30 01:56:20;;;;;;;42.20;4.60;;;5.50;99.90;;;;;;6102092;23;20053;-84
2022/01/30 01:58:54;;;;;;;28.48;3.35;;;5.50;99.90;;;;;;6126727;23;20018;-83
2022/01/30 02:01:26;;;;;;;29.65;4.30;;;5.30;99.90;;;;;;6101277;23;20017;-83
2022/01/30 02:03:55;;;;;;;40.60;5.68;;;5.80;99.90;;;;;;6101321;23;20014;-84
2022/01/30 02:06:26;;;;;;;40.65;5.68;;;5.20;99.90;;;;;;6106872;23;20009;-84
2022/01/30 02:08:59;;;;;;;48.15;7.13;;;5.60;99.90;;;;;;6129349;23;20012;-84
2022/01/30 02:11:33;;;;;;;48.85;6.45;;;5.00;99.90;;;;;;6168824;23;20024;-84
2022/01/30 02:24:04;;;;;;;24.65;4.15;;;5.00;99.90;;;;;;6037657;23;20054;-84
2022/01/30 02:27:23;;;;;;;;;;;;;;;;;;;;;
2022/01/30 02:31:34;;;;;;;36.60;4.50;;;5.00;99.90;;;;;;5923102;24;20043;-83
2022/01/30 02:41:19;;;;;;;45.33;5.30;;;5.60;99.90;;;;;;5921789;24;20136;-82
2022/01/30 02:44:38;;;;;;;49.28;5.72;;;4.90;99.90;;;;;;5921458;24;20031;-83
2022/01/30 02:54:34;;;;;;;46.70;6.25;;;5.60;99.90;;;;;;5872463;24;20496;-84
2022/01/30 02:58:27;;;;;;;38.50;6.35;;;6.10;99.90;;;;;;5753914;24;20024;-83
2022/01/30 03:10:17;;;;;;;39.78;6.47;;;5.00;99.90;;;;;;5585557;25;20037;-84
2022/01/30 03:12:57;;;;;;;33.13;5.07;;;6.00;99.90;;;;;;5543070;25;20395;-84
2022/01/30 03:15:29;;;;;;;40.47;6.50;;;6.00;99.90;;;;;;5564797;25;20174;-84
2022/01/30 03:18:25;;;;;;;47.47;6.65;;;5.70;99.90;;;;;;5564226;25;20106;-84
2022/01/30 03:21:12;;;;;;;42.78;7.05;;;5.90;99.90;;;;;;5562841;25;20094;-84
2022/01/30 03:24:01;;;;;;;53.45;6.70;;;5.90;99.90;;;;;;5565608;25;20094;-84
2022/01/30 03:27:11;;;;;;;49.80;6.37;;;5.80;99.90;;;;;;5542455;25;20026;-83
2022/01/30 03:30:30;;;;;;;40.78;4.47;;;5.00;99.90;;;;;;5595614;25;20082;-84
2022/01/30 03:33:28;;;;;;;;;;;5.90;99.90;;;;;;5722415;25;20032;-84
2022/01/30 03:36:30;;;;;;;55.95;7.50;;;6.30;99.90;;;;;;5712163;25;19921;-84
2022/01/30 03:39:39;;;;;;;62.55;6.53;;;5.30;99.90;;;;;;5778955;24;20403;-81
2022/01/30 03:43:09;;;;;;;60.25;6.60;;;6.00;99.90;;;;;;5848513;24;20154;-83
2022/01/30 03:46:30;;;;;;;43.38;6.10;;;5.60;99.90;;;;;;5982200;23;20019;-83
2022/01/30 04:00:53;;;;;;;;;;;;;;;;;;;;;
2022/01/30 04:11:35;;;;;;;27.48;4.60;;;7.00;99.90;;;;;;5712382;25;20388;-83
2022/01/30 04:29:55;;;;;;;63.33;6.75;;;6.10;99.90;;;;;;5909920;22;8621101;-82
2022/01/30 04:32:26;;;;;;;57.95;8.75;;;6.00;99.90;;;;;;6218919;23;20102;-82
2022/01/30 04:34:57;;;;;;;60.70;7.80;;;6.80;99.90;;;;;;6192791;23;20452;-82
2022/01/30 04:59:47;;;;;;;53.73;9.00;;;6.90;99.90;;;;;;6219412;23;20386;-83
2022/01/30 05:05:03;;;;;;;46.13;6.53;;;7.00;99.90;;;;;;6219028;23;20075;-83
2022/01/30 05:07:32;;;;;;;63.17;10.17;;;6.20;99.90;;;;;;6166625;23;20301;-83
2022/01/30 05:10:04;;;;;;;69.15;9.32;;;6.20;99.90;;;;;;6189850;23;20071;-83
2022/01/30 05:12:45;;;;;;;54.45;8.65;;;6.70;99.90;;;;;;6163752;23;20024;-83
2022/01/30 05:15:22;;;;;;;64.63;9.00;;;5.50;99.90;;;;;;6166259;23;20045;-84
2022/01/30 05:17:52;;;;;;;52.40;7.57;;;6.30;99.90;;;;;;6165036;23;20013;-84
2022/01/30 05:20:21;;;;;;;57.20;8.07;;;6.10;99.90;;;;;;6165397;23;20028;-83
2022/01/30 05:22:50;;;;;;;54.58;8.00;;;6.10;99.90;;;;;;6163915;23;20017;-83
2022/01/30 05:25:25;;;;;;;66.68;8.52;;;6.60;99.90;;;;;;6184160;23;20013;-84
2022/01/30 05:27:53;;;;;;;46.28;7.13;;;5.30;99.90;;;;;;6158169;23;20093;-84
2022/01/30 05:30:22;;;;;;;44.72;6.57;;;5.90;99.90;;;;;;6158775;23;20055;-84
2022/01/30 05:32:49;;;;;;;56.97;7.55;;;5.90;99.90;;;;;;6158198;23;20488;-84
2022/01/30 05:35:15;;;;;;;56.97;8.27;;;5.80;99.90;;;;;;6183811;23;20017;-83
2022/01/30 05:38:20;;;;;;;68.43;7.63;;;5.80;99.90;;;;;;6156531;23;20017;-83
2022/01/30 05:40:49;;;;;;;63.70;7.95;;;5.90;99.90;;;;;;6183147;23;20457;-83
2022/01/30 05:43:15;;;;;;;47.72;7.70;;;6.00;99.90;;;;;;6183411;23;20066;-83
2022/01/30 05:45:47;;;;;;;53.72;7.32;;;6.00;99.90;;;;;;6157230;23;20013;-82
2022/01/30 05:48:16;;;;;;;63.15;7.63;;;6.00;99.90;;;;;;6158368;23;20021;-83
2022/01/30 05:50:51;;;;;;;56.65;7.82;;;6.10;99.90;;;;;;6157509;23;20013;-84
2022/01/30 05:53:17;;;;;;;37.90;6.55;;;6.20;99.90;;;;;;6182238;23;20088;-83
2022/01/30 05:55:45;;;;;;;56.92;7.60;;;6.40;99.90;;;;;;6154232;23;20051;-84
2022/01/30 05:58:17;;;;;;;46.65;6.78;;;6.10;99.90;;;;;;6181988;23;20047;-84
2022/01/30 06:01:23;;;;;;;35.53;5.38;;;6.40;99.90;;;;;;6180032;23;20016;-84
2022/01/30 06:04:07;;;;;;;32.78;6.50;;;5.70;99.90;;;;;;6180678;23;20031;-84
2022/01/30 06:06:35;;;;;;;48.20;7.97;;;5.60;99.90;;;;;;6155482;23;20065;-84
2022/01/30 06:11:59;;;;;;;59.05;7.32;;;6.40;99.90;;;;;;6096312;23;20685;-84
2022/01/30 06:14:25;;;;;;;58.08;8.05;;;6.10;99.90;;;;;;6097173;23;20089;-83
2022/01/30 06:16:53;;;;;;;61.10;8.38;;;5.80;99.90;;;;;;6073764;23;20093;-84
2022/01/30 06:19:19;;;;;;;53.05;7.60;;;6.50;99.90;;;;;;6073008;23;20089;-84
2022/01/30 06:21:48;;;;;;;49.25;6.50;;;5.90;99.90;;;;;;6071039;23;20067;-84
2022/01/30 06:24:14;;;;;;;65.18;7.47;;;5.80;99.90;;;;;;6121198;23;20080;-84
2022/01/30 06:26:39;;;;;;;57.08;8.10;;;6.00;99.90;;;;;;6073076;23;20429;-83
2022/01/30 06:29:05;;;;;;;55.08;7.40;;;6.60;99.90;;;;;;6072439;23;20025;-84
2022/01/30 06:31:31;;;;;;;53.13;7.75;;;5.90;99.90;;;;;;6073242;23;20021;-84
2022/01/30 06:34:00;;;;;;;56.47;8.15;;;5.90;99.90;;;;;;6096935;23;20406;-84
2022/01/30 06:36:25;;;;;;;23.10;4.30;;;6.50;99.90;;;;;;6095849;23;20017;-84
2022/01/30 06:38:52;;;;;;;61.60;7.72;;;6.90;99.90;;;;;;6097638;23;20032;-81
2022/01/30 06:41:18;;;;;;;55.78;7.88;;;5.90;99.90;;;;;;6096893;23;20036;-83
2022/01/30 06:47:45;;;;;;;52.42;7.22;;;5.90;99.90;;;;;;6091406;23;20021;-82
2022/01/30 07:01:17;;;;;;;;;;;;;;;;;;;;;
2022/01/30 07:05:05;;;;;;;68.10;8.50;;;5.40;99.90;;;;;;6005826;23;20337;-83
2022/01/30 07:11:34;;;;;;;45.33;6.50;;;5.90;99.90;;;;;;5893835;24;20082;-82
2022/01/30 07:28:15;;;;;;;38.70;5.65;;;6.00;99.90;;;;;;5084450;27;20409;-81
2022/01/30 07:30:52;;;;;;;45.63;6.28;;;7.10;99.90;;;;;;5055895;28;20120;-81
2022/01/30 07:33:35;;;;;;;46.83;6.15;;;7.00;99.90;;;;;;5082956;28;20071;-81
2022/01/30 07:36:49;;;;;;;;;;;;;;;;;;;;;
2022/01/30 07:39:18;;;;;;;34.42;6.05;;;5.40;99.90;;;;;;5061989;28;20996;-81
2022/01/30 07:41:49;;;;;;;29.85;4.85;;;6.30;99.90;;;;;;5079816;28;20091;-80
2022/01/30 07:45:14;;;;;;;27.48;5.00;;;5.90;99.90;;;;;;5063744;28;20082;-84
2022/01/30 07:48:01;;;;;;;31.27;4.60;;;5.30;99.90;;;;;;5059974;28;20385;-81
2022/01/30 07:50:54;;;;;;;;;;;;;;;;;;;;;
2022/01/30 07:53:45;;;;;;;38.10;4.97;;;6.10;99.90;;;;;;5062955;28;20033;-80
2022/01/30 07:56:49;;;;;;;37.10;5.68;;;6.00;99.90;;;;;;5098243;28;20094;-80
2022/01/30 08:02:59;;;;;;;54.50;6.50;;;7.30;99.90;;;;;;4974104;28;20134;-81
2022/01/30 08:05:31;;;;;;;37.70;5.72;;;6.10;99.90;;;;;;4962966;28;20046;-80
2022/01/30 08:08:30;;;;;;;34.92;5.07;;;7.10;99.90;;;;;;4943532;28;20035;-80
2022/01/30 08:10:59;;;;;;;41.38;6.70;;;6.00;99.90;;;;;;4941516;28;20054;-80
2022/01/30 08:13:24;;;;;;;41.30;6.40;;;6.10;99.90;;;;;;4924888;28;20046;-82
2022/01/30 08:15:51;;;;;;;44.20;6.70;;;6.10;99.90;;;;;;4943940;28;20047;-79
2022/01/30 08:18:40;;;;;;;53.72;7.22;;;7.50;99.90;;;;;;4927400;28;20169;-80
2022/01/30 08:21:52;;;;;;;51.20;7.97;;;5.30;99.90;;;;;;4903728;29;20055;-79
2022/01/30 08:24:39;;;;;;;63.03;7.25;;;6.60;99.90;;;;;;4902959;29;20095;-81
2022/01/30 08:27:21;;;;;;;61.28;8.23;;;7.10;99.90;;;;;;4901905;29;20044;-81
2022/01/30 08:29:56;;;;;;;50.30;7.10;;;6.00;99.90;;;;;;4874766;29;20135;-80
2022/01/30 08:32:30;;;;;;;63.67;9.27;;;6.00;99.90;;;;;;4867943;29;20052;-83
2022/01/30 08:34:56;;;;;;;45.40;6.95;;;6.00;99.90;;;;;;4880949;29;20159;-84
2022/01/30 08:37:24;;;;;;;46.72;6.45;;;6.20;99.90;;;;;;4859983;29;20909;-85
2022/01/30 08:39:50;;;;;;;39.47;5.80;;;5.20;99.90;;;;;;4904907;28;20174;-81
2022/01/30 08:46:03;;;;;;;47.90;7.03;;;6.00;99.90;;;;;;4931088;29;20166;-79
2022/01/30 08:48:39;;;;;;;40.40;5.53;;;7.30;99.90;;;;;;4932116;29;20051;-80
2022/01/30 08:51:26;;;;;;;42.92;6.97;;;7.10;99.90;;;;;;5115700;27;20906;-78
2022/01/30 08:53:52;;;;;;;44.17;6.78;;;6.40;99.90;;;;;;5091150;28;20196;-77
2022/01/30 08:56:21;;;;;;;52.70;8.23;;;6.20;99.90;;;;;;5105662;28;20065;-80
2022/01/30 08:58:47;;;;;;;68.18;7.63;;;6.20;99.90;;;;;;5120944;28;20114;-80
2022/01/30 09:01:13;;;;;;;46.53;6.80;;;6.10;99.90;;;;;;5087458;28;20047;-77
2022/01/30 09:03:40;;;;;;;51.17;7.57;;;6.10;99.90;;;;;;5105206;28;20047;-81
2022/01/30 09:06:06;;;;;;;52.55;8.07;;;6.10;99.90;;;;;;5102296;28;20039;-78
2022/01/30 09:08:32;;;;;;;57.17;7.78;;;6.20;99.90;;;;;;5103311;28;20052;-78
2022/01/30 09:10:58;;;;;;;47.40;7.80;;;6.30;99.90;;;;;;5102548;28;20538;-80
2022/01/30 09:13:24;;;;;;;56.78;7.78;;;6.30;99.90;;;;;;5101626;28;20028;-77
2022/01/30 09:15:56;;;;;;;52.75;6.28;;;6.40;99.90;;;;;;5084935;28;20159;-74
2022/01/30 09:18:22;;;;;;;37.92;6.13;;;6.30;99.90;;;;;;5103622;28;20042;-75
2022/01/30 09:20:48;;;;;;;34.70;5.95;;;6.40;99.90;;;;;;5087919;28;20062;-76
2022/01/30 09:23:14;;;;;;;53.25;7.53;;;6.40;99.90;;;;;;5106584;28;20451;-76
2022/01/30 09:25:40;;;;;;;45.60;7.00;;;6.30;99.90;;;;;;5104987;28;20039;-75
2022/01/30 09:28:06;;;;;;;35.00;5.43;;;6.30;99.90;;;;;;5086824;28;20395;-76
2022/01/30 09:30:33;;;;;;;43.97;5.75;;;6.40;99.90;;;;;;5097558;28;20117;-75
2022/01/30 09:32:58;;;;;;;43.60;7.30;;;6.40;99.90;;;;;;5083260;28;20048;-77
2022/01/30 09:35:24;;;;;;;43.08;6.28;;;6.40;99.90;;;;;;5102272;28;20069;-76
2022/01/30 09:37:50;;;;;;;33.70;5.18;;;6.40;99.90;;;;;;5103270;28;20063;-77
2022/01/30 09:40:17;;;;;;;32.28;5.15;;;6.50;99.90;;;;;;5102588;28;20042;-79
2022/01/30 09:42:45;;;;;;;39.28;6.25;;;6.90;99.90;;;;;;5102552;28;20089;-76
2022/01/30 09:45:12;;;;;;;31.65;5.80;;;6.70;99.90;;;;;;5102240;28;20047;-76
2022/01/30 09:47:39;;;;;;;45.35;6.53;;;6.60;99.90;;;;;;5101768;28;20084;-79
2022/01/30 09:50:06;;;;;;;39.67;6.70;;;6.60;99.90;;;;;;5103124;28;20052;-78
2022/01/30 09:52:32;;;;;;;49.75;6.57;;;6.70;99.90;;;;;;5098816;28;20127;-78
2022/01/30 09:54:58;;;;;;;56.95;8.00;;;6.80;99.90;;;;;;5113376;28;20115;-78
2022/01/30 09:57:24;;;;;;;38.60;6.53;;;6.80;99.90;;;;;;5089064;28;20130;-80
2022/01/30 09:59:49;;;;;;;50.97;7.32;;;6.80;99.90;;;;;;5086470;28;20089;-79
2022/01/30 10:02:15;;;;;;;55.75;7.28;;;6.70;99.90;;;;;;5076857;28;20051;-78
2022/01/30 10:04:41;;;;;;;46.63;6.50;;;6.60;99.90;;;;;;5092380;28;20032;-76
2022/01/30 10:07:14;;;;;;;44.67;6.55;;;6.60;99.90;;;;;;5105189;28;20050;-76
2022/01/30 10:09:46;;;;;;;51.95;7.10;;;6.60;99.90;;;;;;5093637;28;20131;-76
2022/01/30 10:12:18;;;;;;;44.63;6.60;;;6.70;99.90;;;;;;5068985;28;20048;-76
2022/01/30 10:15:06;;;;;;;54.15;7.60;;;6.70;99.90;;;;;;5068718;28;20043;-76
2022/01/30 10:17:46;;;;;;;52.53;8.80;;;6.90;99.90;;;;;;5087788;28;20466;-75
2022/01/30 10:20:17;;;;;;;35.88;5.40;;;7.00;99.90;;;;;;5071972;28;20359;-75
2022/01/30 10:22:50;;;;;;;36.53;5.68;;;7.10;99.90;;;;;;5088488;28;20055;-79
2022/01/30 10:25:20;;;;;;;56.10;7.30;;;7.10;99.90;;;;;;5086997;28;20137;-78
2022/01/30 10:27:46;;;;;;;50.80;6.32;;;7.10;99.90;;;;;;5087785;28;20097;-78
2022/01/30 10:30:18;;;;;;;40.67;5.85;;;7.10;99.90;;;;;;5084735;28;20038;-78
2022/01/30 10:32:54;;;;;;;49.83;7.22;;;7.10;99.90;;;;;;5091279;28;20467;-78
2022/01/30 10:35:20;;;;;;;42.47;6.35;;;7.00;99.90;;;;;;5072052;28;20032;-79
2022/01/30 10:37:46;;;;;;;53.85;8.85;;;6.90;99.90;;;;;;5090690;28;20119;-79
2022/01/30 10:40:19;;;;;;;45.72;6.47;;;6.90;99.90;;;;;;5087630;28;20106;-79
2022/01/30 10:42:51;;;;;;;46.72;6.90;;;6.90;99.90;;;;;;5088145;28;20078;-80
2022/01/30 10:45:32;;;;;;;54.20;7.88;;;7.00;99.90;;;;;;5100134;28;20473;-79
2022/01/30 10:48:20;;;;;;;50.40;7.75;;;7.10;99.90;;;;;;5090291;28;20138;-79
2022/01/30 10:50:48;;;;;;;28.75;4.35;;;7.10;99.90;;;;;;5086658;28;20364;-79
2022/01/30 10:53:25;;;;;;;47.55;7.50;;;7.10;99.90;;;;;;5087613;28;20040;-79
2022/01/30 10:55:51;;;;;;;44.83;6.63;;;7.10;99.90;;;;;;5070984;28;20040;-79
2022/01/30 10:58:20;;;;;;;35.42;5.68;;;7.10;99.90;;;;;;5091308;28;20149;-79
2022/01/30 11:00:51;;;;;;;44.70;6.97;;;7.20;99.90;;;;;;5089275;28;20069;-80
2022/01/30 11:03:37;;;;;;;53.40;7.35;;;7.10;99.90;;;;;;5090449;28;20055;-79
2022/01/30 11:06:04;;;;;;;40.75;5.88;;;7.60;99.90;;;;;;5080644;28;20048;-79
2022/01/30 11:08:31;;;;;;;46.58;6.55;;;7.10;99.90;;;;;;5074400;28;20075;-79
2022/01/30 11:11:14;;;;;;;37.00;5.65;;;7.20;99.90;;;;;;5072173;28;20502;-80
2022/01/30 11:19:16;;;;;;;36.10;5.30;;;7.40;99.90;;;;;;5090411;28;20548;-78
2022/01/30 11:21:50;;;;;;;30.85;4.82;;;7.30;99.90;;;;;;5088666;28;20032;-78
2022/01/30 11:24:17;;;;;;;41.72;6.35;;;7.30;99.90;;;;;;5086317;28;20055;-78
2022/01/30 11:26:44;;;;;;;44.30;6.15;;;7.30;99.90;;;;;;5088345;28;20154;-79
2022/01/30 11:29:17;;;;;;;49.47;7.03;;;7.30;99.90;;;;;;5089634;28;20032;-79
2022/01/30 11:31:43;;;;;;;44.05;7.05;;;7.30;99.90;;;;;;5072966;28;20416;-77
2022/01/30 11:34:09;;;;;;;39.53;5.72;;;7.50;99.90;;;;;;5089236;28;20039;-78
2022/01/30 11:36:41;;;;;;;32.17;6.13;;;7.80;99.90;;;;;;5089148;28;20042;-78
2022/01/30 11:39:09;;;;;;;44.85;6.20;;;7.50;99.90;;;;;;5089554;28;20048;-78
2022/01/30 11:41:35;;;;;;;38.88;6.28;;;7.40;99.90;;;;;;5089894;28;20032;-79
2022/01/30 11:44:19;;;;;;;55.08;7.65;;;7.50;99.90;;;;;;5088774;28;20044;-78
2022/01/30 11:47:07;;;;;;;44.60;7.22;;;7.50;99.90;;;;;;5090131;28;20070;-78
2022/01/30 11:49:52;;;;;;;47.90;7.28;;;7.90;99.90;;;;;;5072630;28;20109;-77
2022/01/30 11:52:20;;;;;;;51.72;7.72;;;7.60;99.90;;;;;;5085964;28;20052;-79
2022/01/30 11:54:53;;;;;;;52.40;7.82;;;7.70;99.90;;;;;;5070428;28;20047;-79
2022/01/30 11:57:22;;;;;;;47.70;7.05;;;9.00;99.90;;;;;;5086245;28;20059;-77
2022/01/30 11:59:55;;;;;;;41.40;6.20;;;7.70;99.90;;;;;;5091138;28;20044;-78
2022/01/30 12:02:30;;;;;;;43.35;7.15;;;7.70;99.90;;;;;;5090087;28;20348;-77
2022/01/30 12:05:03;;;;;;;47.65;6.88;;;7.70;99.90;;;;;;5088606;28;20060;-79
2022/01/30 12:07:46;;;;;;;59.63;7.28;;;7.80;99.90;;;;;;5088170;28;20091;-78
2022/01/30 12:10:21;;;;;;;48.50;6.95;;;8.60;99.90;;;;;;5098609;28;20140;-78
2022/01/30 12:13:01;;;;;;;67.90;8.80;;;9.20;99.90;;;;;;5072032;28;20048;-77
2022/01/30 12:15:46;;;;;;;49.95;7.22;;;8.30;99.90;;;;;;5083800;28;20090;-78
2022/01/30 12:18:25;;;;;;;57.25;8.38;;;8.40;99.90;;;;;;5087173;28;20028;-78
2022/01/30 12:21:00;;;;;;;40.33;5.85;;;8.20;99.90;;;;;;5085721;28;20048;-77
2022/01/30 12:23:26;;;;;;;41.13;6.43;;;7.90;99.90;;;;;;5084246;28;20039;-77
2022/01/30 12:26:03;;;;;;;37.80;6.05;;;7.80;99.90;;;;;;5086482;28;20044;-79
2022/01/30 12:28:50;;;;;;;41.50;6.53;;;7.50;99.90;;;;;;5069833;28;20124;-77
2022/01/30 12:31:33;;;;;;;55.70;6.82;;;7.30;99.90;;;;;;5067901;28;20048;-76
2022/01/30 12:34:10;;;;;;;47.60;5.97;;;7.20;99.90;;;;;;5071345;28;20040;-77
2022/01/30 12:36:41;;;;;;;47.83;5.80;;;7.10;99.90;;;;;;5070710;28;20075;-78
2022/01/30 12:39:16;;;;;;;46.03;6.03;;;7.00;99.90;;;;;;5083236;28;20045;-78
2022/01/30 12:41:42;;;;;;;;;;;7.90;99.90;;;;;;5086032;28;20067;-77
2022/01/30 12:44:12;;;;;;;49.10;7.88;;;7.10;99.90;;;;;;5069437;28;19924;-79
2022/01/30 12:46:47;;;;;;;55.92;7.68;;;7.20;99.90;;;;;;5086802;28;20039;-79
2022/01/30 12:49:15;;;;;;;;;;;7.30;99.90;;;;;;5086917;28;20044;-75
2022/01/30 12:51:46;;;;;;;36.97;5.43;;;7.50;99.90;;;;;;5087065;28;19927;-77
2022/01/30 12:54:12;;;;;;;41.35;7.25;;;7.60;99.90;;;;;;5085958;28;20395;-79
2022/01/30 12:56:38;;;;;;;46.72;5.70;;;7.60;99.90;;;;;;5086897;28;20043;-78
2022/01/30 12:59:08;;;;;;;45.80;6.32;;;7.70;99.90;;;;;;5093508;28;20064;-77
2022/01/30 13:01:44;;;;;;;36.05;6.07;;;7.70;99.90;;;;;;5091910;28;20071;-77
2022/01/30 13:04:16;;;;;;;44.10;6.78;;;7.70;99.90;;;;;;5085612;28;20054;-75
2022/01/30 13:06:46;;;;;;;33.30;5.15;;;7.70;99.90;;;;;;5089971;28;20047;-77
2022/01/30 13:09:16;;;;;;;42.95;6.50;;;7.50;99.90;;;;;;5075027;28;20459;-77
2022/01/30 13:11:42;;;;;;;26.35;4.25;;;7.50;99.90;;;;;;5087881;28;20124;-76
2022/01/30 13:14:09;;;;;;;37.28;5.50;;;7.50;99.90;;;;;;5077692;28;20419;-77
2022/01/30 13:16:40;;;;;;;38.55;6.35;;;7.50;99.90;;;;;;5089184;28;20040;-78
2022/01/30 13:19:11;;;;;;;39.63;5.93;;;7.70;99.90;;;;;;5086519;28;20133;-76
2022/01/30 13:21:39;;;;;;;46.85;5.97;;;8.10;99.90;;;;;;5069075;28;20036;-77
2022/01/30 13:24:07;;;;;;;33.08;5.20;;;7.70;99.90;;;;;;5087360;28;20040;-77
2022/01/30 13:26:57;;;;;;;43.08;6.38;;;7.80;99.90;;;;;;5068649;28;20426;-78
2022/01/30 13:29:23;;;;;;;38.83;6.05;;;7.90;99.90;;;;;;5008504;28;20063;-78
2022/01/30 13:31:51;;;;;;;35.60;5.40;;;7.80;99.90;;;;;;5012193;28;20049;-77
2022/01/30 13:34:26;;;;;;;37.80;5.57;;;7.60;99.90;;;;;;5028472;28;20048;-77
2022/01/30 13:37:17;;;;;;;32.92;5.63;;;7.60;99.90;;;;;;5012516;28;20542;-77
2022/01/30 13:40:06;;;;;;;38.67;4.97;;;7.40;99.90;;;;;;5033039;28;20120;-77
2022/01/30 13:47:57;;;;;;;36.15;5.35;;;6.00;99.90;;;;;;5025429;28;20558;-78
2022/01/30 13:50:31;;;;;;;40.00;6.35;;;6.90;99.90;;;;;;5009952;28;20115;-77
2022/01/30 13:53:01;;;;;;;40.78;6.05;;;7.10;99.90;;;;;;5032658;28;20429;-79
2022/01/30 13:55:28;;;;;;;32.78;5.80;;;7.60;99.90;;;;;;5032267;28;20097;-79
2022/01/30 13:57:58;;;;;;;39.90;6.13;;;7.00;99.90;;;;;;5032312;28;20119;-75
2022/01/30 14:00:27;;;;;;;43.42;6.07;;;7.00;99.90;;;;;;5049811;28;20048;-78
2022/01/30 14:02:55;;;;;;;42.53;6.32;;;7.00;99.90;;;;;;5034530;28;20495;-76
2022/01/30 14:05:31;;;;;;;43.17;5.75;;;7.20;99.90;;;;;;5037519;28;20049;-76
2022/01/30 14:07:59;;;;;;;37.65;5.95;;;6.90;99.90;;;;;;5090763;28;20075;-75
2022/01/30 14:10:31;;;;;;;38.92;6.00;;;7.00;99.90;;;;;;5074103;28;20058;-76
2022/01/30 14:13:04;;;;;;;41.42;5.93;;;6.90;99.90;;;;;;5091945;28;20064;-76
2022/01/30 14:15:33;;;;;;;46.75;6.85;;;;;;;;;;5090928;28;20031;-76
2022/01/30 14:18:17;;;;;;;45.63;6.38;;;7.10;99.90;;;;;;5087502;28;20048;-76
2022/01/30 14:20:45;;;;;;;33.80;5.53;;;7.00;99.90;;;;;;5082545;28;20037;-77
2022/01/30 14:23:14;;;;;;;41.78;6.05;;;7.00;99.90;;;;;;5089463;28;20386;-76
2022/01/30 14:25:42;;;;;;;42.42;6.45;;;6.90;99.90;;;;;;5090999;28;20031;-77
2022/01/30 14:28:27;;;;;;;40.38;6.15;;;7.50;99.90;;;;;;5080000;28;20143;-78
2022/01/30 14:30:54;;;;;;;;;;;6.90;99.90;;;;;;5089163;28;20421;-77
2022/01/30 14:33:20;;;;;;;39.47;5.70;;;7.00;99.90;;;;;;5086680;28;19923;-77
2022/01/30 14:35:46;;;;;;;47.40;6.60;;;7.00;99.90;;;;;;5062149;28;20040;-78
2022/01/30 14:38:12;;;;;;;34.72;5.05;;;6.90;99.90;;;;;;5086613;28;20052;-76
2022/01/30 14:40:38;;;;;;;38.67;5.57;;;7.00;99.90;;;;;;5081995;28;20549;-76
2022/01/30 14:43:05;;;;;;;30.50;5.75;;;6.90;99.90;;;;;;5069577;28;20055;-76
2022/01/30 14:45:32;;;;;;;40.65;6.22;;;6.80;99.90;;;;;;5074823;28;20097;-76
2022/01/30 14:47:58;;;;;;;41.55;5.65;;;6.90;99.90;;;;;;5082549;28;20413;-77
2022/01/30 14:50:25;;;;;;;44.00;5.70;;;6.90;99.90;;;;;;5079669;28;20069;-76
2022/01/30 14:52:51;;;;;;;44.03;5.53;;;8.60;99.90;;;;;;5058114;28;20162;-78
2022/01/30 14:55:17;;;;;;;36.85;6.15;;;7.00;99.90;;;;;;5067411;28;20127;-78
2022/01/30 14:57:45;;;;;;;39.55;6.43;;;7.40;99.90;;;;;;5068068;28;20045;-76
2022/01/30 15:00:14;;;;;;;45.38;6.15;;;6.80;99.90;;;;;;5068775;28;20048;-78
2022/01/30 15:02:40;;;;;;;39.28;5.88;;;7.00;99.90;;;;;;5082846;28;20109;-78
2022/01/30 15:05:08;;;;;;;34.50;4.97;;;6.80;99.90;;;;;;5073342;28;20499;-77
2022/01/30 15:07:34;;;;;;;46.55;6.43;;;6.70;99.90;;;;;;5064005;28;20052;-78
2022/01/30 15:09:59;;;;;;;43.90;5.72;;;6.70;99.90;;;;;;5085523;28;20418;-77
2022/01/30 15:12:25;;;;;;;46.35;6.90;;;7.70;99.90;;;;;;5083659;28;20069;-77
2022/01/30 15:14:52;;;;;;;43.95;6.18;;;6.60;99.90;;;;;;5079649;28;20071;-77
2022/01/30 15:17:22;;;;;;;50.80;6.93;;;6.50;99.90;;;;;;5087353;28;20059;-76
2022/01/30 15:19:48;;;;;;;44.53;6.57;;;6.50;99.90;;;;;;5081304;28;20040;-76
2022/01/30 15:22:14;;;;;;;48.38;7.25;;;6.90;99.90;;;;;;5074124;28;20054;-76
2022/01/30 15:24:40;;;;;;;53.92;7.57;;;6.20;99.90;;;;;;5084983;28;20071;-75
2022/01/30 15:27:06;;;;;;;59.45;7.13;;;6.50;99.90;;;;;;5090357;28;20044;-76
2022/01/30 15:29:32;;;;;;;48.70;7.20;;;6.40;99.90;;;;;;5087235;28;20064;-78
2022/01/30 15:31:57;;;;;;;62.53;8.15;;;6.40;99.90;;;;;;5087590;28;20097;-76
2022/01/30 15:34:23;;;;;;;47.67;6.85;;;6.20;99.90;;;;;;5067734;28;20078;-78
2022/01/30 15:36:49;;;;;;;43.90;5.97;;;6.20;99.90;;;;;;5085605;28;20146;-77
2022/01/30 15:39:14;;;;;;;48.95;5.70;;;6.20;99.90;;;;;;5066006;28;20050;-80
2022/01/30 15:41:40;;;;;;;54.92;7.13;;;6.30;99.90;;;;;;5083206;28;20029;-79
2022/01/30 15:44:08;;;;;;;51.97;7.15;;;6.70;99.90;;;;;;5088903;28;20036;-78
2022/01/30 15:49:18;;;;;;;59.55;7.38;;;6.10;99.90;;;;;;5082506;28;22184;-78
2022/01/30 15:51:45;;;;;;;54.17;7.28;;;7.00;99.90;;;;;;5083155;28;20064;-78
2022/01/30 15:54:13;;;;;;;54.45;6.88;;;5.90;99.90;;;;;;5079508;28;20480;-81
2022/01/30 15:56:40;;;;;;;40.33;5.18;;;5.80;99.90;;;;;;5067930;28;20044;-77
2022/01/30 15:59:07;;;;;;;49.60;6.88;;;5.80;99.90;;;;;;5077457;28;20040;-78
2022/01/30 16:01:33;;;;;;;62.33;8.27;;;5.60;99.90;;;;;;5079104;28;20056;-77
2022/01/30 16:04:00;;;;;;;49.40;6.05;;;6.20;99.90;;;;;;5077761;28;20060;-78
2022/01/30 16:06:29;;;;;;;52.90;6.70;;;5.70;99.90;;;;;;5074485;28;20146;-77
2022/01/30 16:09:02;;;;;;;58.83;7.30;;;;;;;;;;5065183;28;20043;-77
2022/01/30 16:16:41;;;;;;;49.42;7.00;;;4.40;99.90;;;;;;5086429;28;20138;-77
2022/01/30 16:19:08;;;;;;;60.08;7.40;;;5.20;99.90;;;;;;5087637;28;20054;-77
2022/01/30 16:21:35;;;;;;;49.95;7.18;;;5.20;99.90;;;;;;5067105;28;20035;-76
2022/01/30 16:24:05;;;;;;;34.67;5.43;;;5.20;99.90;;;;;;5068181;28;20162;-77
2022/01/30 16:26:31;;;;;;;48.72;7.22;;;5.10;99.90;;;;;;5065303;28;20470;-77
2022/01/30 16:28:57;;;;;;;52.33;7.35;;;5.10;99.90;;;;;;5097304;27;20046;-77
2022/01/30 16:31:23;;;;;;;50.50;6.03;;;5.00;99.90;;;;;;5079292;28;20524;-78
2022/01/30 16:33:57;;;;;;;60.97;8.38;;;4.80;99.90;;;;;;5084697;28;20144;-80
2022/01/30 16:36:24;;;;;;;64.05;7.43;;;4.80;99.90;;;;;;5066420;28;20549;-81
2022/01/30 16:39:01;;;;;;;35.72;6.45;;;4.80;99.90;;;;;;5066865;28;20156;-80
2022/01/30 16:41:38;;;;;;;51.17;7.07;;;4.60;99.90;;;;;;5067529;28;20709;-82
2022/01/30 16:44:38;;;;;;;47.90;7.68;;;4.90;99.90;;;;;;5088024;28;20038;-79
2022/01/30 16:47:28;;;;;;;51.47;6.43;;;4.70;99.90;;;;;;5073242;28;20505;-80
2022/01/30 16:49:58;;;;;;;62.28;7.05;;;4.70;99.90;;;;;;5089720;28;20365;-82
2022/01/30 16:52:51;;;;;;;38.97;5.97;;;4.70;99.90;;;;;;5087733;28;20110;-82
2022/01/30 16:55:17;;;;;;;41.85;6.18;;;;;;;;;;5081273;28;20447;-79
2022/01/30 16:57:43;;;;;;;43.85;6.57;;;4.60;99.90;;;;;;5075638;28;20032;-79
2022/01/30 17:00:09;;;;;;;53.92;7.38;;;4.70;99.90;;;;;;5096122;28;20130;-80
2022/01/30 17:02:35;;;;;;;48.28;6.80;;;4.70;99.90;;;;;;5076088;28;20059;-81
2022/01/30 17:05:01;;;;;;;61.88;8.10;;;4.70;99.90;;;;;;5095093;28;20134;-82
2022/01/30 17:07:29;;;;;;;61.67;7.30;;;6.10;99.90;;;;;;5088921;28;20039;-75
2022/01/30 17:09:55;;;;;;;56.38;8.95;;;4.60;99.90;;;;;;5071346;28;20458;-76
2022/01/30 17:12:31;;;;;;;52.83;7.47;;;5.40;99.90;;;;;;5089052;28;20167;-77
2022/01/30 17:14:57;;;;;;;53.38;8.18;;;4.50;99.90;;;;;;5070132;28;20123;-77
2022/01/30 17:17:22;;;;;;;55.53;8.35;;;5.20;99.90;;;;;;5078654;28;20127;-76
2022/01/30 17:19:48;;;;;;;48.35;7.05;;;4.50;99.90;;;;;;5076597;28;20048;-76